Time;durP1;ratioP1;P1;durP2;ratioP2;P2;SDS_P1;SDS_P2;PMS_P1;PMS_P2;Temp;Humidity;BMP_temperature;BMP_pressure;BME280_temperature;BME280_humidity;BME280_pressure;Samples;Min_cycle;Max_cycle;Signal;HPM_P1;HPM_P2
2023/04/24 00:01:39;;;;;;;1999.90;999.90;;;;;;;13.52;89.66;97108.03;5135632;27;20023;-86
2023/04/24 00:04:06;;;;;;;1999.90;999.90;;;;;;;13.51;90.21;97095.41;5134764;27;20027;-79
2023/04/24 00:06:36;;;;;;;1999.90;999.90;;;;;;;13.44;90.19;97095.16;5134962;27;20038;-81
2023/04/24 00:09:03;;;;;;;1999.90;999.90;;;;;;;13.44;90.18;97095.16;5135271;27;20387;-87
2023/04/24 00:11:29;;;;;;;1999.90;999.90;;;;;;;13.44;89.89;97083.38;5130615;27;20051;-81
2023/04/24 00:13:54;;;;;;;1999.90;999.90;;;;;;;13.39;89.89;97082.44;5113307;28;20023;-82
2023/04/24 00:16:20;;;;;;;1999.90;999.90;;;;;;;13.41;90.25;97073.84;5113591;28;20058;-83
2023/04/24 00:18:47;;;;;;;1999.90;999.90;;;;;;;13.40;90.24;97077.75;5114208;28;20039;-77
2023/04/24 00:21:13;;;;;;;1999.90;999.90;;;;;;;13.46;89.80;97083.84;5096208;28;20027;-76
2023/04/24 00:23:38;;;;;;;1999.90;999.90;;;;;;;13.44;90.12;97080.63;5112205;28;20024;-77
2023/04/24 00:26:04;;;;;;;1999.90;999.90;;;;;;;13.35;90.89;97084.22;5113280;28;20059;-78
2023/04/24 00:28:29;;;;;;;1999.90;999.90;;;;;;;13.23;92.14;97080.59;5113664;28;20533;-81
2023/04/24 00:30:54;;;;;;;1999.90;999.90;;;;;;;13.21;92.76;97077.41;5113236;28;20031;-76
2023/04/24 00:33:20;;;;;;;1999.90;999.90;;;;;;;13.19;93.02;97071.41;5112969;28;20110;-77
2023/04/24 00:35:45;;;;;;;1999.90;999.90;;;;;;;13.18;94.05;97061.59;5113345;28;20066;-77
2023/04/24 00:38:11;;;;;;;1999.90;999.90;;;;;;;13.19;94.43;97071.41;5112759;28;20031;-81
2023/04/24 00:40:36;;;;;;;1999.90;999.90;;;;;;;13.18;95.18;97072.56;5112816;28;20051;-76
2023/04/24 00:43:02;;;;;;;1999.90;999.90;;;;;;;13.14;95.79;97063.38;5113365;28;20027;-76
2023/04/24 00:45:27;;;;;;;1999.90;999.90;;;;;;;13.07;97.49;97060.31;5114407;28;20063;-77
2023/04/24 00:47:53;;;;;;;1999.90;999.90;;;;;;;13.01;98.38;97061.66;5116901;28;20893;-86
2023/04/24 00:50:21;;;;;;;1999.90;999.90;;;;;;;13.06;97.09;97058.75;5113683;28;20529;-80
2023/04/24 00:52:46;;;;;;;1999.90;999.90;;;;;;;12.93;95.47;97057.84;5112917;28;20045;-75
2023/04/24 00:55:12;;;;;;;1999.90;999.90;;;;;;;12.89;95.63;97048.66;5112779;28;20032;-75
2023/04/24 00:57:38;;;;;;;1999.90;999.90;;;;;;;12.83;96.21;97039.81;5112895;28;20111;-78
2023/04/24 01:00:07;;;;;;;1999.90;999.90;;;;;;;12.83;97.15;97045.31;5113031;28;20023;-78
2023/04/24 01:02:34;;;;;;;1999.90;999.90;;;;;;;12.80;98.16;97043.22;5113035;28;20030;-80
2023/04/24 01:05:00;;;;;;;1999.90;999.90;;;;;;;12.74;99.08;97047.31;5113270;28;20023;-78
2023/04/24 01:07:26;;;;;;;1999.90;999.90;;;;;;;12.68;99.93;97040.41;5112255;28;20032;-80
2023/04/24 01:09:52;;;;;;;1999.90;999.90;;;;;;;12.73;99.89;97045.69;5112708;28;20052;-78
2023/04/24 01:12:18;;;;;;;1999.90;999.90;;;;;;;12.76;99.50;97042.28;5112718;28;20032;-79
2023/04/24 01:14:44;;;;;;;1999.90;999.90;;;;;;;12.68;100.00;97032.16;5112317;28;20034;-80
2023/04/24 01:17:10;;;;;;;1999.90;999.90;;;;;;;12.76;100.00;97035.97;5112581;28;20497;-77
2023/04/24 01:19:37;;;;;;;1999.90;999.90;;;;;;;12.81;100.00;97039.31;5112270;28;20110;-78
2023/04/24 01:22:02;;;;;;;1999.90;999.90;;;;;;;12.86;100.00;97039.16;5112060;28;20035;-78
2023/04/24 01:24:29;;;;;;;1999.90;999.90;;;;;;;12.87;100.00;97048.19;5093920;28;20078;-82
2023/04/24 01:26:54;;;;;;;1999.90;999.90;;;;;;;12.92;99.65;97047.19;5093963;28;20038;-76
2023/04/24 01:29:20;;;;;;;1999.90;999.90;;;;;;;12.85;97.67;97045.78;5112265;28;20110;-75
2023/04/24 01:31:46;;;;;;;1999.90;999.90;;;;;;;12.88;97.22;97047.03;5112581;28;20062;-76
2023/04/24 01:34:12;;;;;;;1999.90;999.90;;;;;;;12.88;95.55;97039.63;5112305;28;20456;-78
2023/04/24 01:36:37;;;;;;;1999.90;999.90;;;;;;;12.82;95.63;97031.91;5111402;28;20457;-80
2023/04/24 01:39:03;;;;;;;1999.90;999.90;;;;;;;12.64;96.85;97031.22;5111811;28;20027;-77
2023/04/24 01:41:30;;;;;;;1999.90;999.90;;;;;;;12.58;98.10;97029.78;5111831;28;20028;-74
2023/04/24 01:43:57;;;;;;;1999.90;999.90;;;;;;;12.61;97.77;97033.81;5113019;28;20118;-77
2023/04/24 01:46:23;;;;;;;1999.90;999.90;;;;;;;12.47;98.92;97023.06;5112271;28;20022;-75
2023/04/24 01:48:49;;;;;;;1999.90;999.90;;;;;;;12.33;100.00;97030.72;5112345;28;20484;-76
2023/04/24 01:51:17;;;;;;;1999.90;999.90;;;;;;;12.37;100.00;97019.91;5111521;28;20042;-74
2023/04/24 01:53:42;;;;;;;1999.90;999.90;;;;;;;12.23;100.00;97015.44;5112167;27;20048;-76
2023/04/24 01:56:08;;;;;;;1999.90;999.90;;;;;;;12.25;100.00;97009.59;5132438;27;20035;-75
2023/04/24 01:58:34;;;;;;;1999.90;999.90;;;;;;;12.29;100.00;97014.13;5132020;27;20034;-75
2023/04/24 02:01:00;;;;;;;1999.90;999.90;;;;;;;12.28;100.00;97004.28;5115391;27;20028;-75
2023/04/24 02:03:26;;;;;;;1999.90;999.90;;;;;;;12.49;100.00;97012.59;5112605;28;20468;-77
2023/04/24 02:05:51;;;;;;;1999.90;999.90;;;;;;;12.62;100.00;97010.75;5112863;28;20468;-75
2023/04/24 02:08:17;;;;;;;1999.90;999.90;;;;;;;12.57;100.00;97005.41;5112856;28;20039;-75
2023/04/24 02:10:42;;;;;;;1999.90;999.90;;;;;;;12.66;100.00;96998.75;5113211;28;20048;-77
2023/04/24 02:13:08;;;;;;;1999.90;999.90;;;;;;;12.66;100.00;96995.19;5132086;27;20019;-77
2023/04/24 02:15:33;;;;;;;1999.90;999.90;;;;;;;12.65;100.00;96991.69;5113920;27;20026;-75
2023/04/24 02:17:59;;;;;;;1999.90;999.90;;;;;;;12.65;100.00;96977.97;5132915;27;20062;-76
2023/04/24 02:20:24;;;;;;;1999.90;999.90;;;;;;;12.70;100.00;96982.44;5132982;27;20500;-82
2023/04/24 02:22:49;;;;;;;1999.90;999.90;;;;;;;12.72;100.00;96989.19;5152421;27;20018;-78
2023/04/24 02:25:15;;;;;;;1999.90;999.90;;;;;;;12.70;100.00;96974.19;5152588;27;20026;-78
2023/04/24 02:27:40;;;;;;;1999.90;999.90;;;;;;;12.78;100.00;96971.38;5134456;27;20375;-77
2023/04/24 02:30:07;;;;;;;1999.90;999.90;;;;;;;12.81;100.00;96965.22;5152419;27;20019;-83
2023/04/24 02:32:33;;;;;;;1999.90;999.90;;;;;;;12.84;100.00;96964.56;5134525;27;20491;-78
2023/04/24 02:34:59;;;;;;;1999.90;999.90;;;;;;;12.86;100.00;96967.00;5153342;27;20444;-78
2023/04/24 02:37:24;;;;;;;1999.90;999.90;;;;;;;12.85;100.00;96955.19;5134888;27;20031;-78
2023/04/24 02:39:50;;;;;;;1999.90;999.90;;;;;;;12.97;100.00;96959.16;5153293;27;20086;-75
2023/04/24 02:42:15;;;;;;;1999.90;999.90;;;;;;;12.89;100.00;96956.16;5152806;27;20018;-77
2023/04/24 02:44:40;;;;;;;1999.90;999.90;;;;;;;13.00;100.00;96964.75;5152365;27;20018;-78
2023/04/24 02:47:07;;;;;;;1999.90;999.90;;;;;;;12.98;100.00;96952.53;5153477;27;20022;-76
2023/04/24 02:49:32;;;;;;;1999.90;999.90;;;;;;;12.98;100.00;96949.78;5156113;27;20126;-75
2023/04/24 02:51:58;;;;;;;1999.90;999.90;;;;;;;12.97;100.00;96954.44;5157057;27;20030;-76
2023/04/24 02:54:23;;;;;;;1999.90;999.90;;;;;;;12.97;100.00;96959.16;5156689;27;20064;-77
2023/04/24 02:56:49;;;;;;;1999.90;999.90;;;;;;;12.95;100.00;96958.69;5155826;27;20118;-74
2023/04/24 02:59:14;;;;;;;1999.90;999.90;;;;;;;12.93;100.00;96961.78;5151439;27;20027;-75
2023/04/24 03:01:40;;;;;;;1999.90;999.90;;;;;;;12.97;100.00;96953.69;5135206;27;20019;-79
2023/04/24 03:04:05;;;;;;;1999.90;999.90;;;;;;;12.93;100.00;96944.50;5135192;27;20404;-76
2023/04/24 03:06:32;;;;;;;1999.90;999.90;;;;;;;12.93;100.00;96937.06;5116399;27;20372;-75
2023/04/24 03:08:58;;;;;;;1999.90;999.90;;;;;;;12.96;100.00;96938.34;5135334;27;20502;-75
2023/04/24 03:11:23;;;;;;;1999.90;999.90;;;;;;;12.93;100.00;96936.25;5135019;27;20047;-76
2023/04/24 03:13:49;;;;;;;1999.90;999.90;;;;;;;12.94;100.00;96940.63;5135670;27;20073;-75
2023/04/24 03:16:14;;;;;;;1999.90;999.90;;;;;;;12.88;100.00;96935.31;5125866;27;20106;-78
2023/04/24 03:18:39;;;;;;;1999.90;999.90;;;;;;;12.98;100.00;96938.78;5125819;27;20058;-76
2023/04/24 03:21:05;;;;;;;1999.90;999.90;;;;;;;12.95;100.00;96944.97;5134738;27;20468;-77
2023/04/24 03:23:30;;;;;;;1999.90;999.90;;;;;;;12.89;100.00;96939.69;5115836;27;20031;-76
2023/04/24 03:25:56;;;;;;;1999.90;999.90;;;;;;;12.88;100.00;96943.56;5114446;28;20050;-75
2023/04/24 03:28:21;;;;;;;1999.90;999.90;;;;;;;12.60;100.00;96936.97;5113888;28;20030;-75
2023/04/24 03:30:47;;;;;;;1999.90;999.90;;;;;;;12.31;100.00;96926.03;5114234;28;20092;-74
2023/04/24 03:33:12;;;;;;;1999.90;999.90;;;;;;;12.33;100.00;96940.22;5114947;28;20024;-75
2023/04/24 03:35:37;;;;;;;1999.90;999.90;;;;;;;12.28;100.00;96929.44;5133865;27;20110;-75
2023/04/24 03:38:04;;;;;;;1999.90;999.90;;;;;;;12.10;100.00;96926.00;5137457;27;20075;-75
2023/04/24 03:40:30;;;;;;;1999.90;999.90;;;;;;;12.14;100.00;96926.13;5134124;27;20058;-74
2023/04/24 03:42:55;;;;;;;1999.90;999.90;;;;;;;12.06;100.00;96921.50;5134189;27;20059;-75
2023/04/24 03:45:21;;;;;;;1999.90;999.90;;;;;;;12.01;100.00;96925.22;5134449;27;20027;-75
2023/04/24 03:47:46;;;;;;;1999.90;999.90;;;;;;;12.22;100.00;96920.59;5134016;27;20027;-75
2023/04/24 03:50:12;;;;;;;1999.90;999.90;;;;;;;12.25;100.00;96925.41;5134050;27;20023;-74
2023/04/24 03:52:37;;;;;;;1999.90;999.90;;;;;;;12.17;100.00;96922.72;5134138;27;20602;-76
2023/04/24 03:55:03;;;;;;;1999.90;999.90;;;;;;;12.19;100.00;96921.25;5132434;27;20023;-75
2023/04/24 03:57:28;;;;;;;1999.90;999.90;;;;;;;12.18;100.00;96921.59;5132889;27;20436;-74
2023/04/24 03:59:53;;;;;;;1999.90;999.90;;;;;;;12.15;100.00;96928.53;5132892;27;20015;-75
2023/04/24 04:02:19;;;;;;;1999.90;999.90;;;;;;;12.11;100.00;96924.88;5134089;27;20065;-75
2023/04/24 04:04:44;;;;;;;1999.90;999.90;;;;;;;12.30;100.00;96928.00;5133842;27;20016;-74
2023/04/24 04:07:11;;;;;;;1999.90;999.90;;;;;;;12.31;100.00;96924.09;5134251;27;20027;-77
2023/04/24 04:09:36;;;;;;;1999.90;999.90;;;;;;;12.31;100.00;96934.25;5133834;27;21639;-75
2023/04/24 04:12:02;;;;;;;1999.90;999.90;;;;;;;12.24;100.00;96923.03;5134518;27;20054;-74
2023/04/24 04:14:28;;;;;;;1999.90;999.90;;;;;;;12.25;100.00;96914.44;5118733;27;20052;-77
2023/04/24 04:16:53;;;;;;;1999.90;999.90;;;;;;;12.29;100.00;96909.13;5138422;27;20054;-74
2023/04/24 04:19:18;;;;;;;1999.90;999.90;;;;;;;12.35;100.00;96914.06;5134260;27;20055;-75
2023/04/24 04:21:45;;;;;;;1999.90;999.90;;;;;;;12.41;100.00;96911.94;5133448;27;20584;-76
2023/04/24 04:24:11;;;;;;;1999.90;999.90;;;;;;;12.34;100.00;96920.69;5133472;27;20023;-75
2023/04/24 04:26:37;;;;;;;1999.90;999.90;;;;;;;12.32;100.00;96924.91;5114839;27;20030;-75
2023/04/24 04:29:03;;;;;;;1999.90;999.90;;;;;;;12.31;100.00;96926.03;5132965;27;20510;-76
2023/04/24 04:31:30;;;;;;;1999.90;999.90;;;;;;;12.41;100.00;96922.91;5133282;27;20027;-75
2023/04/24 04:33:55;;;;;;;1999.90;999.90;;;;;;;12.42;100.00;96924.53;5133257;27;20019;-76
2023/04/24 04:36:20;;;;;;;1999.90;999.90;;;;;;;12.53;100.00;96924.94;5133374;27;20038;-74
2023/04/24 04:38:46;;;;;;;1999.90;999.90;;;;;;;12.58;100.00;96917.31;5133535;27;20102;-74
2023/04/24 04:41:11;;;;;;;1999.90;999.90;;;;;;;12.61;100.00;96918.59;5114711;27;20484;-75
2023/04/24 04:43:38;;;;;;;1999.90;999.90;;;;;;;12.56;100.00;96918.78;5133705;27;20108;-74
2023/04/24 04:46:03;;;;;;;1999.90;999.90;;;;;;;12.53;100.00;96912.00;5133385;27;20592;-75
2023/04/24 04:48:31;;;;;;;1999.90;999.90;;;;;;;12.61;100.00;96913.91;5132702;27;20114;-76
2023/04/24 04:50:56;;;;;;;1999.90;999.90;;;;;;;12.67;100.00;96912.56;5133258;27;20023;-74
2023/04/24 04:53:22;;;;;;;1999.90;999.90;;;;;;;12.86;100.00;96912.91;5135024;27;20027;-75
2023/04/24 04:55:47;;;;;;;1999.90;999.90;;;;;;;12.99;100.00;96915.69;5132762;27;20027;-74
2023/04/24 04:58:12;;;;;;;1999.90;999.90;;;;;;;12.95;100.00;96923.00;5132770;27;20019;-74
2023/04/24 05:00:38;;;;;;;1999.90;999.90;;;;;;;12.98;100.00;96923.13;5134573;27;20046;-74
2023/04/24 05:03:05;;;;;;;1999.90;999.90;;;;;;;12.97;100.00;96923.47;5114847;27;20068;-75
2023/04/24 05:05:30;;;;;;;1999.90;999.90;;;;;;;12.97;100.00;96926.22;5132659;27;20015;-74
2023/04/24 05:07:55;;;;;;;1999.90;999.90;;;;;;;13.07;100.00;96925.78;5115954;27;20038;-74
2023/04/24 05:10:22;;;;;;;1999.90;999.90;;;;;;;12.94;100.00;96929.66;5133669;27;20518;-75
2023/04/24 05:12:49;;;;;;;1999.90;999.90;;;;;;;12.81;100.00;96932.31;5132707;27;20088;-76
2023/04/24 05:15:14;;;;;;;1999.90;999.90;;;;;;;12.80;100.00;96925.22;5132739;27;20027;-74
2023/04/24 05:17:40;;;;;;;1999.90;999.90;;;;;;;12.77;100.00;96934.13;5131924;27;20042;-74
2023/04/24 05:20:06;;;;;;;1999.90;999.90;;;;;;;12.65;100.00;96936.00;5132281;27;20558;-78
2023/04/24 05:22:32;;;;;;;1999.90;999.90;;;;;;;12.58;100.00;96936.53;5132054;27;20027;-74
2023/04/24 05:25:00;;;;;;;1999.90;999.90;;;;;;;12.60;100.00;96936.16;5130199;27;20019;-76
2023/04/24 05:27:26;;;;;;;1999.90;999.90;;;;;;;12.56;100.00;96929.78;5130549;27;20517;-74
2023/04/24 05:29:51;;;;;;;1999.90;999.90;;;;;;;12.55;100.00;96945.41;5095074;27;20051;-75
2023/04/24 05:32:16;;;;;;;1999.90;999.90;;;;;;;12.44;100.00;96938.69;5131241;27;20023;-74
2023/04/24 05:34:42;;;;;;;1999.90;999.90;;;;;;;12.51;100.00;96949.94;5135138;27;20083;-75
2023/04/24 05:37:11;;;;;;;1999.90;999.90;;;;;;;12.57;100.00;96943.13;5131085;27;20072;-76
2023/04/24 05:39:36;;;;;;;1999.90;999.90;;;;;;;12.45;100.00;96940.31;5109506;27;20122;-75
2023/04/24 05:42:04;;;;;;;1999.90;999.90;;;;;;;12.39;100.00;96938.09;5130181;27;20102;-75
2023/04/24 05:44:29;;;;;;;1999.90;999.90;;;;;;;12.52;100.00;96932.38;5131366;27;20038;-75
2023/04/24 05:46:55;;;;;;;1999.90;999.90;;;;;;;12.67;100.00;96933.72;5113695;27;20091;-78
2023/04/24 05:49:21;;;;;;;1999.90;999.90;;;;;;;12.73;100.00;96927.69;5132488;27;20421;-78
2023/04/24 05:51:47;;;;;;;1999.90;999.90;;;;;;;12.74;100.00;96934.00;5112342;27;20135;-75
2023/04/24 05:54:13;;;;;;;1999.90;999.90;;;;;;;12.71;100.00;96932.72;5131077;27;20020;-74
2023/04/24 05:56:39;;;;;;;1999.90;999.90;;;;;;;12.77;100.00;96936.06;5130125;27;20023;-74
2023/04/24 05:59:04;;;;;;;1999.90;999.90;;;;;;;12.78;100.00;96919.25;5131624;27;20049;-74
2023/04/24 06:01:31;;;;;;;1999.90;999.90;;;;;;;12.78;100.00;96935.72;5131579;27;20030;-75
2023/04/24 06:03:56;;;;;;;1999.90;999.90;;;;;;;12.85;100.00;96922.25;5131618;27;20099;-77
2023/04/24 06:06:23;;;;;;;1999.90;999.90;;;;;;;12.90;100.00;96935.00;5132105;27;20054;-74
2023/04/24 06:08:49;;;;;;;1999.90;999.90;;;;;;;12.90;100.00;96930.28;5131899;27;20494;-76
2023/04/24 06:11:14;;;;;;;1999.90;999.90;;;;;;;13.06;100.00;96933.22;5121531;27;20043;-75
2023/04/24 06:13:39;;;;;;;1999.90;999.90;;;;;;;13.11;100.00;96932.25;5112066;28;20038;-76
2023/04/24 06:16:05;;;;;;;1999.90;999.90;;;;;;;13.27;100.00;96933.25;5112650;28;20034;-75
2023/04/24 06:18:30;;;;;;;1999.90;999.90;;;;;;;13.45;100.00;96931.94;5112814;28;20047;-77
2023/04/24 06:20:56;;;;;;;1999.90;999.90;;;;;;;13.64;100.00;96932.22;5120444;27;20031;-77
2023/04/24 06:23:21;;;;;;;1999.90;999.90;;;;;;;13.82;100.00;96933.63;5107835;28;20031;-75
2023/04/24 06:25:46;;;;;;;1999.90;999.90;;;;;;;13.84;100.00;96931.34;5116204;28;20083;-75
2023/04/24 06:28:12;;;;;;;1999.90;999.90;;;;;;;13.82;100.00;96928.13;5111001;28;20032;-74
2023/04/24 06:30:38;;;;;;;1999.90;999.90;;;;;;;13.91;100.00;96928.00;5111023;28;20036;-75
2023/04/24 06:33:03;;;;;;;1999.90;999.90;;;;;;;13.94;100.00;96930.06;5111209;28;20038;-74
2023/04/24 06:35:28;;;;;;;1999.90;999.90;;;;;;;14.01;100.00;96926.75;5110353;28;20068;-75
2023/04/24 06:37:56;;;;;;;1999.90;999.90;;;;;;;14.04;100.00;96923.31;5110563;28;20023;-75
2023/04/24 06:40:21;;;;;;;1999.90;999.90;;;;;;;13.89;100.00;96914.63;5110264;28;20024;-77
2023/04/24 06:42:47;;;;;;;1999.90;999.90;;;;;;;13.93;100.00;96923.78;5110787;28;20046;-75
2023/04/24 06:45:14;;;;;;;1999.90;999.90;;;;;;;14.00;100.00;96922.41;5126637;28;20031;-74
2023/04/24 06:47:39;;;;;;;1999.90;999.90;;;;;;;14.02;100.00;96915.44;5110870;28;20361;-74
2023/04/24 06:50:05;;;;;;;1999.90;999.90;;;;;;;14.04;100.00;96915.06;5110654;28;20169;-75
2023/04/24 06:52:33;;;;;;;1999.90;999.90;;;;;;;14.26;100.00;96920.13;5110655;28;20111;-74
2023/04/24 06:55:05;;;;;;;1999.90;999.90;;;;;;;14.36;100.00;96925.19;5110899;28;20045;-77
2023/04/24 06:57:31;;;;;;;1999.90;999.90;;;;;;;14.50;100.00;96917.41;5110717;28;20161;-75
2023/04/24 06:59:57;;;;;;;1999.90;999.90;;;;;;;14.49;100.00;96910.28;5110686;28;20114;-75
2023/04/24 07:02:22;;;;;;;1999.90;999.90;;;;;;;14.59;100.00;96909.00;5110789;28;20058;-75
2023/04/24 07:04:47;;;;;;;1999.90;999.90;;;;;;;14.76;100.00;96917.78;5110752;28;20433;-74
2023/04/24 07:07:16;;;;;;;1999.90;999.90;;;;;;;14.94;100.00;96913.59;5110640;28;20038;-77
2023/04/24 07:09:42;;;;;;;1999.90;999.90;;;;;;;15.13;100.00;96920.44;5110527;28;20044;-75
2023/04/24 07:12:10;;;;;;;1999.90;999.90;;;;;;;15.07;100.00;96916.34;5092652;28;20032;-74
2023/04/24 07:14:36;;;;;;;1999.90;999.90;;;;;;;15.02;100.00;96917.38;5110742;28;20035;-75
2023/04/24 07:17:02;;;;;;;1999.90;999.90;;;;;;;14.77;100.00;96918.59;5110921;28;20067;-76
2023/04/24 07:19:28;;;;;;;1999.90;999.90;;;;;;;14.74;100.00;96925.59;5110520;28;20461;-76
2023/04/24 07:21:54;;;;;;;1999.90;999.90;;;;;;;14.70;100.00;96923.88;5110442;28;20052;-76
2023/04/24 07:24:20;;;;;;;1999.90;999.90;;;;;;;14.57;100.00;96919.53;5110695;28;20019;-75
2023/04/24 07:26:46;;;;;;;1999.90;999.90;;;;;;;14.44;100.00;96910.50;5092326;28;20027;-75
2023/04/24 07:29:12;;;;;;;1999.90;999.90;;;;;;;14.28;100.00;96910.38;5110030;28;20406;-74
2023/04/24 07:31:38;;;;;;;1999.90;999.90;;;;;;;14.23;100.00;96920.81;5110296;28;20028;-75
2023/04/24 07:34:03;;;;;;;1999.90;999.90;;;;;;;14.15;100.00;96916.22;5111097;28;20063;-74
2023/04/24 07:36:29;;;;;;;1999.90;999.90;;;;;;;14.04;100.00;96910.38;5129820;27;20027;-75
2023/04/24 07:38:55;;;;;;;1999.90;999.90;;;;;;;13.98;100.00;96906.25;5114015;28;20019;-77
2023/04/24 07:41:21;;;;;;;1999.90;999.90;;;;;;;13.92;100.00;96916.69;5114128;28;20020;-75
2023/04/24 07:43:46;;;;;;;1999.90;999.90;;;;;;;13.88;100.00;96915.75;5113964;28;20451;-76
2023/04/24 07:46:12;;;;;;;1999.90;999.90;;;;;;;13.82;100.00;96913.56;5114762;28;20076;-76
2023/04/24 07:48:37;;;;;;;1999.90;999.90;;;;;;;13.73;100.00;96908.19;5115679;28;20027;-74
2023/04/24 07:51:03;;;;;;;1999.90;999.90;;;;;;;13.76;100.00;96913.00;5114972;28;20035;-74
2023/04/24 07:53:28;;;;;;;1999.90;999.90;;;;;;;13.85;100.00;96912.88;5114442;28;20558;-76
2023/04/24 07:55:57;;;;;;;1999.90;999.90;;;;;;;13.84;100.00;96906.59;5114237;28;20034;-75
2023/04/24 07:58:22;;;;;;;1999.90;999.90;;;;;;;13.88;100.00;96904.75;5113824;28;20077;-74
2023/04/24 08:00:48;;;;;;;1999.90;999.90;;;;;;;13.92;100.00;96905.69;5113939;28;20031;-76
2023/04/24 08:03:13;;;;;;;1999.90;999.90;;;;;;;13.99;100.00;96905.13;5114053;28;20027;-76
2023/04/24 08:05:39;;;;;;;1999.90;999.90;;;;;;;13.97;100.00;96901.13;5114468;28;20481;-74
2023/04/24 08:08:04;;;;;;;1999.90;999.90;;;;;;;14.08;100.00;96905.00;5114206;28;20541;-75
2023/04/24 08:10:29;;;;;;;1999.90;999.90;;;;;;;14.03;100.00;96897.00;5113857;28;20078;-76
2023/04/24 08:12:55;;;;;;;1999.90;999.90;;;;;;;14.20;100.00;96914.06;5114456;28;20081;-75
2023/04/24 08:15:21;;;;;;;1999.90;999.90;;;;;;;14.25;100.00;96902.81;5114250;28;20027;-77
2023/04/24 08:17:46;;;;;;;1999.90;999.90;;;;;;;14.25;100.00;96902.03;5114746;28;20015;-75
2023/04/24 08:20:15;;;;;;;1999.90;999.90;;;;;;;14.21;100.00;96901.91;5114321;28;20076;-75
2023/04/24 08:22:42;;;;;;;1999.90;999.90;;;;;;;14.21;100.00;96906.59;5114406;28;20532;-73
2023/04/24 08:25:08;;;;;;;1999.90;999.90;;;;;;;14.30;100.00;96899.03;5113558;28;20102;-75
2023/04/24 08:27:33;;;;;;;1999.90;999.90;;;;;;;14.24;100.00;96903.16;5114371;28;20027;-74
2023/04/24 08:29:59;;;;;;;1999.90;999.90;;;;;;;14.19;100.00;96898.69;5114664;28;20031;-76
2023/04/24 08:32:27;;;;;;;1999.90;999.90;;;;;;;14.24;100.00;96901.22;5136314;27;20055;-75
2023/04/24 08:34:53;;;;;;;1999.90;999.90;;;;;;;14.20;100.00;96910.50;5117636;28;20141;-75
2023/04/24 08:37:18;;;;;;;1999.90;999.90;;;;;;;14.20;100.00;96894.00;5113302;27;20160;-75
2023/04/24 08:39:44;;;;;;;1999.90;999.90;;;;;;;14.24;100.00;96900.41;5113146;28;20041;-74
2023/04/24 08:42:11;;;;;;;1999.90;999.90;;;;;;;14.22;100.00;96905.47;5128932;27;20024;-76
2023/04/24 08:44:37;;;;;;;1999.90;999.90;;;;;;;14.18;100.00;96896.28;5112497;28;20046;-74
2023/04/24 08:47:03;;;;;;;1999.90;999.90;;;;;;;14.16;100.00;96906.84;5113278;28;20479;-74
2023/04/24 08:49:29;;;;;;;1999.90;999.90;;;;;;;14.10;100.00;96899.94;5113165;28;20023;-73
2023/04/24 08:51:54;;;;;;;1999.90;999.90;;;;;;;13.98;100.00;96899.94;5112948;28;20020;-74
2023/04/24 08:54:21;;;;;;;1999.90;999.90;;;;;;;13.92;100.00;96902.94;5112764;28;20111;-74
2023/04/24 08:56:48;;;;;;;1999.90;999.90;;;;;;;14.00;100.00;96900.44;5112766;28;20123;-75
2023/04/24 08:59:15;;;;;;;1999.90;999.90;;;;;;;14.07;100.00;96909.69;5112816;28;20023;-77
2023/04/24 09:01:41;;;;;;;1999.90;999.90;;;;;;;14.10;100.00;96903.50;5112642;28;20069;-74
2023/04/24 09:04:09;;;;;;;1999.90;999.90;;;;;;;14.05;100.00;96898.25;5113034;28;20016;-76
2023/04/24 09:06:35;;;;;;;1999.90;999.90;;;;;;;13.99;100.00;96898.81;5129083;27;20079;-75
2023/04/24 09:09:03;;;;;;;1999.90;999.90;;;;;;;13.98;100.00;96895.25;5112535;28;20031;-76
2023/04/24 09:11:30;;;;;;;1999.90;999.90;;;;;;;13.99;100.00;96899.63;5094741;28;20040;-75
2023/04/24 09:13:56;;;;;;;1999.90;999.90;;;;;;;14.03;100.00;96899.75;5116057;28;20119;-76
2023/04/24 09:16:24;;;;;;;1999.90;999.90;;;;;;;14.04;100.00;96896.63;5112465;28;20099;-80
2023/04/24 09:18:49;;;;;;;1999.90;999.90;;;;;;;14.14;100.00;96906.38;5112439;28;20028;-74
2023/04/24 09:21:15;;;;;;;1999.90;999.90;;;;;;;14.10;100.00;96899.94;5112111;28;20023;-74
2023/04/24 09:23:41;;;;;;;1999.90;999.90;;;;;;;14.10;100.00;96900.75;5111736;28;20047;-74
2023/04/24 09:26:09;;;;;;;1999.90;999.90;;;;;;;14.01;100.00;96893.75;5111824;28;20029;-77
2023/04/24 09:28:39;;;;;;;1999.90;999.90;;;;;;;14.01;100.00;96896.50;5111712;28;20047;-77
2023/04/24 09:31:18;;;;;;;1999.90;999.90;;;;;;;14.03;100.00;96886.00;5111670;28;20055;-74
2023/04/24 09:33:56;;;;;;;1999.90;999.90;;;;;;;14.09;100.00;96892.84;5111932;28;20118;-77
2023/04/24 09:36:33;;;;;;;1999.90;999.90;;;;;;;14.08;100.00;96891.25;5111920;28;20112;-75
2023/04/24 09:39:00;;;;;;;1999.90;999.90;;;;;;;14.02;100.00;96898.13;5111700;28;20023;-77
2023/04/24 09:41:26;;;;;;;1999.90;999.90;;;;;;;13.88;100.00;96891.00;5111797;28;20027;-77
2023/04/24 09:43:54;;;;;;;1999.90;999.90;;;;;;;13.78;100.00;96891.44;5111719;28;20020;-75
2023/04/24 09:46:21;;;;;;;1999.90;999.90;;;;;;;13.78;100.00;96896.16;5111452;28;20027;-74
2023/04/24 09:48:46;;;;;;;1999.90;999.90;;;;;;;13.76;100.00;96896.50;5112295;28;20427;-76
2023/04/24 09:51:12;;;;;;;1999.90;999.90;;;;;;;13.79;100.00;96901.31;5112075;28;20108;-76
2023/04/24 09:53:39;;;;;;;1999.90;999.90;;;;;;;13.87;100.00;96896.88;5111718;28;20055;-74
2023/04/24 09:56:09;;;;;;;1999.90;999.90;;;;;;;13.80;100.00;96891.13;5092903;28;20388;-74
2023/04/24 09:58:36;;;;;;;1999.90;999.90;;;;;;;13.75;100.00;96889.38;5111483;28;20472;-74
2023/04/24 10:01:01;;;;;;;1999.90;999.90;;;;;;;13.66;100.00;96890.63;5111154;28;20026;-75
2023/04/24 10:03:30;;;;;;;1999.90;999.90;;;;;;;13.62;100.00;96893.28;5111317;28;20099;-76
2023/04/24 10:06:02;;;;;;;1999.90;999.90;;;;;;;13.45;100.00;96889.91;5111311;28;20126;-74
2023/04/24 10:08:34;;;;;;;1999.90;999.90;;;;;;;13.27;100.00;96894.78;5111102;28;20035;-76
2023/04/24 10:11:00;;;;;;;1999.90;999.90;;;;;;;13.10;100.00;96895.75;5110818;28;20071;-74
2023/04/24 10:13:27;;;;;;;1999.90;999.90;;;;;;;13.09;100.00;96887.88;5111101;28;20031;-75
2023/04/24 10:15:54;;;;;;;1999.90;999.90;;;;;;;13.12;100.00;96893.50;5110814;28;20023;-77
2023/04/24 10:18:20;;;;;;;1999.90;999.90;;;;;;;13.15;100.00;96890.06;5112066;28;20068;-74
2023/04/24 10:20:46;;;;;;;1999.90;999.90;;;;;;;13.12;100.00;96895.44;5093304;28;20099;-77
2023/04/24 10:23:12;;;;;;;1999.90;999.90;;;;;;;13.13;100.00;96899.75;5111731;28;20307;-76
2023/04/24 10:25:37;;;;;;;1999.90;999.90;;;;;;;13.07;100.00;96895.59;5111503;28;20039;-75
2023/04/24 10:28:04;;;;;;;1999.90;999.90;;;;;;;12.98;100.00;96897.63;5111242;28;20024;-73
2023/04/24 10:30:37;;;;;;;1999.90;999.90;;;;;;;13.09;100.00;96907.09;5111509;28;20020;-75
2023/04/24 10:33:05;;;;;;;1999.90;999.90;;;;;;;13.08;100.00;96897.22;5093151;28;20451;-74
2023/04/24 10:35:48;;;;;;;1999.90;999.90;;;;;;;12.99;100.00;96899.22;5111503;28;20054;-77
2023/04/24 10:38:17;;;;;;;1999.90;999.90;;;;;;;12.76;100.00;96902.31;5112984;28;20471;-76
2023/04/24 10:40:43;;;;;;;1999.90;999.90;;;;;;;12.67;100.00;96898.84;5116768;28;20023;-78
2023/04/24 10:43:10;;;;;;;1999.90;999.90;;;;;;;12.75;100.00;96902.66;5115044;28;20015;-76